Time;durP1;ratioP1;P1;durP2;ratioP2;P2;SDS_P1;SDS_P2;PMS_P1;PMS_P2;Temp;Humidity;BMP_temperature;BMP_pressure;BME280_temperature;BME280_humidity;BME280_pressure;Samples;Min_cycle;Max_cycle;Signal;HPM_P1;HPM_P2
2023/12/26 00:00:53;;;;;;;0.50;0.30;;;;;;;14.26;52.06;96918.83;105482;1260;71593;-47
2023/12/26 00:03:20;;;;;;;0.70;0.40;;;;;;;14.26;52.03;96921.91;105614;1261;62062;-47
2023/12/26 00:05:48;;;;;;;0.40;0.40;;;;;;;14.26;52.03;96925.23;105711;1261;62070;-46
2023/12/26 00:08:16;;;;;;;0.50;0.40;;;;;;;14.27;52.02;96924.88;105606;1262;75048;-46
2023/12/26 00:10:43;;;;;;;0.30;0.30;;;;;;;14.28;51.99;96936.36;105501;1262;66233;-47
2023/12/26 00:13:11;;;;;;;0.60;0.50;;;;;;;14.28;52.02;96929.96;105194;1261;71678;-46
2023/12/26 00:15:38;;;;;;;0.50;0.40;;;;;;;14.28;52.04;96931.36;105560;1262;62149;-46
2023/12/26 00:18:06;;;;;;;0.60;0.50;;;;;;;14.29;51.98;96938.77;105232;1262;62164;-46
2023/12/26 00:20:34;;;;;;;1.20;0.50;;;;;;;14.29;52.09;96941.39;106054;1260;75429;-47
2023/12/26 00:23:02;;;;;;;0.60;0.40;;;;;;;14.29;52.08;96941.17;105573;1263;66368;-46
2023/12/26 00:25:29;;;;;;;0.60;0.40;;;;;;;14.29;52.06;96947.80;105269;1262;72752;-46
2023/12/26 00:27:57;;;;;;;0.70;0.50;;;;;;;14.29;52.08;96951.66;105234;1261;62731;-46
2023/12/26 00:30:24;;;;;;;0.80;0.50;;;;;;;14.30;52.04;96958.22;105173;1263;62012;-46
2023/12/26 00:32:52;;;;;;;0.70;0.50;;;;;;;14.30;52.01;96959.14;105117;1272;75163;-46
2023/12/26 00:35:20;;;;;;;0.30;0.30;;;;;;;14.30;52.03;96951.37;105204;1271;66384;-46
2023/12/26 00:37:48;;;;;;;0.30;0.30;;;;;;;14.30;51.98;96960.78;105193;1262;72613;-46
2023/12/26 00:40:15;;;;;;;1.00;0.60;;;;;;;14.31;52.02;96959.04;105379;1261;61965;-46
2023/12/26 00:42:44;;;;;;;0.50;0.50;;;;;;;14.31;51.95;96960.43;105298;1258;62147;-46
2023/12/26 00:45:13;;;;;;;0.30;0.30;;;;;;;14.32;51.89;96965.13;105264;1262;75459;-46
2023/12/26 00:47:41;;;;;;;0.30;0.30;;;;;;;14.32;52.02;96959.75;105616;1262;66290;-46
2023/12/26 00:50:13;;;;;;;0.50;0.30;;;;;;;14.32;52.04;96962.60;105448;1262;73009;-46
2023/12/26 00:52:41;;;;;;;0.50;0.40;;;;;;;14.33;52.00;96963.70;105403;1256;61989;-46
2023/12/26 00:55:09;;;;;;;0.70;0.40;;;;;;;14.33;51.90;96976.41;105187;1262;62144;-46
2023/12/26 00:57:36;;;;;;;0.40;0.30;;;;;;;14.33;51.95;96975.96;105203;1261;76391;-46
2023/12/26 01:00:05;;;;;;;0.40;0.40;;;;;;;14.33;51.93;96975.80;105480;1261;65922;-46
2023/12/26 01:02:33;;;;;;;0.60;0.30;;;;;;;14.33;51.95;96977.05;105520;1264;71602;-46
2023/12/26 01:05:01;;;;;;;0.30;0.30;;;;;;;14.33;52.03;96971.27;105321;1271;62063;-46
2023/12/26 01:07:29;;;;;;;0.40;0.40;;;;;;;14.33;52.03;96970.36;105372;1261;62059;-46
2023/12/26 01:09:56;;;;;;;0.40;0.40;;;;;;;14.34;51.98;96972.52;105581;1263;75930;-46
2023/12/26 01:12:24;;;;;;;0.40;0.30;;;;;;;14.34;51.82;96966.98;105292;1264;65671;-46
2023/12/26 01:14:51;;;;;;;0.40;0.40;;;;;;;14.34;52.02;96971.68;105588;1262;72630;-46
2023/12/26 01:17:18;;;;;;;0.60;0.50;;;;;;;14.34;52.06;96964.68;105658;1263;62042;-45
2023/12/26 01:19:47;;;;;;;0.50;0.50;;;;;;;14.34;51.99;96962.05;105551;1256;62051;-45
2023/12/26 01:22:14;;;;;;;0.50;0.40;;;;;;;14.35;52.03;96966.17;105597;1262;75369;-45
2023/12/26 01:24:41;;;;;;;0.50;0.50;;;;;;;14.35;51.94;96965.09;105409;1263;66101;-45
2023/12/26 01:27:09;;;;;;;0.60;0.40;;;;;;;14.35;51.89;96973.02;105476;1261;72566;-45
2023/12/26 01:29:36;;;;;;;0.50;0.40;;;;;;;14.35;52.08;96974.95;105610;1261;62052;-46
2023/12/26 01:32:04;;;;;;;0.50;0.40;;;;;;;14.36;51.98;96978.65;105649;1257;62430;-45
2023/12/26 01:34:32;;;;;;;0.50;0.50;;;;;;;14.36;52.02;96978.66;105548;1257;75435;-45
2023/12/26 01:36:59;;;;;;;0.40;0.40;;;;;;;14.36;52.04;96980.73;105534;1257;65570;-46
2023/12/26 01:39:28;;;;;;;0.60;0.40;;;;;;;14.37;51.95;96992.23;105368;1258;72652;-46
2023/12/26 01:41:55;;;;;;;0.60;0.40;;;;;;;14.37;51.94;96997.08;105153;1258;62106;-46
2023/12/26 01:44:22;;;;;;;0.40;0.40;;;;;;;14.36;51.98;96996.84;105143;1261;62196;-46
2023/12/26 01:46:50;;;;;;;0.40;0.40;;;;;;;14.36;51.93;97002.23;105634;1257;76476;-46
2023/12/26 01:49:17;;;;;;;0.40;0.40;;;;;;;14.36;52.02;97002.39;105520;1271;65693;-46
2023/12/26 01:51:45;;;;;;;0.30;0.30;;;;;;;14.37;51.96;97006.33;105185;1258;72991;-46
2023/12/26 01:54:13;;;;;;;0.30;0.30;;;;;;;14.37;52.02;97009.33;105192;1269;62117;-46
2023/12/26 01:56:40;;;;;;;0.60;0.50;;;;;;;14.37;52.01;97013.87;105202;1260;62018;-46
2023/12/26 01:59:08;;;;;;;0.80;0.60;;;;;;;14.38;52.06;97008.66;105480;1258;75411;-46
2023/12/26 02:01:35;;;;;;;0.30;0.30;;;;;;;14.38;52.01;97014.27;105457;1260;66118;-46
2023/12/26 02:04:03;;;;;;;0.50;0.50;;;;;;;14.38;52.04;97013.03;105323;1261;72177;-46
2023/12/26 02:06:31;;;;;;;0.50;0.50;;;;;;;14.38;51.94;97018.67;105355;1261;62085;-46
2023/12/26 02:08:58;;;;;;;0.80;0.50;;;;;;;14.38;51.93;97017.36;105313;1257;62173;-46
2023/12/26 02:11:26;;;;;;;0.50;0.40;;;;;;;14.38;52.03;97016.19;105536;1258;75580;-46
2023/12/26 02:13:53;;;;;;;0.70;0.40;;;;;;;14.38;51.88;97016.13;105586;1260;65967;-46
2023/12/26 02:16:21;;;;;;;0.60;0.50;;;;;;;14.39;52.04;97013.91;105192;1258;72640;-48
2023/12/26 02:18:50;;;;;;;0.90;0.60;;;;;;;14.39;52.00;97011.90;105341;1261;62060;-46
2023/12/26 02:21:17;;;;;;;0.50;0.50;;;;;;;14.39;52.01;97004.45;105117;1264;62086;-46
2023/12/26 02:23:45;;;;;;;0.60;0.40;;;;;;;14.39;51.89;97005.75;105590;1263;75529;-46
2023/12/26 02:26:12;;;;;;;0.30;0.30;;;;;;;14.39;51.98;97004.77;105350;1263;66974;-46
2023/12/26 02:28:39;;;;;;;0.50;0.40;;;;;;;14.39;51.88;97013.77;105601;1261;72637;-46
2023/12/26 02:31:08;;;;;;;0.60;0.40;;;;;;;14.39;51.96;97015.32;105251;1260;62064;-46
2023/12/26 02:33:35;;;;;;;0.40;0.40;;;;;;;14.39;51.94;97013.39;105592;1258;62138;-46
2023/12/26 02:36:04;;;;;;;0.60;0.60;;;;;;;14.39;51.97;97018.30;105325;1263;75429;-46
2023/12/26 02:38:31;;;;;;;0.30;0.30;;;;;;;14.40;52.00;97013.70;105582;1271;65681;-46
2023/12/26 02:40:58;;;;;;;0.40;0.30;;;;;;;14.40;51.94;97014.88;105554;1258;72576;-45
2023/12/26 02:43:28;;;;;;;0.40;0.30;;;;;;;14.40;52.04;97017.35;105348;1260;62063;-45
2023/12/26 02:45:55;;;;;;;0.40;0.40;;;;;;;14.40;52.00;97023.27;105289;1262;62101;-46
2023/12/26 02:48:23;;;;;;;0.40;0.40;;;;;;;14.41;51.94;97027.20;105562;1261;75363;-46
2023/12/26 02:50:50;;;;;;;0.70;0.40;;;;;;;14.41;51.98;97033.45;105563;1261;66028;-46
2023/12/26 02:53:18;;;;;;;0.40;0.40;;;;;;;14.41;52.01;97033.33;105627;1260;72612;-46
2023/12/26 02:55:49;;;;;;;0.70;0.40;;;;;;;14.41;51.99;97032.30;105759;1261;61987;-46
2023/12/26 02:58:19;;;;;;;0.40;0.40;;;;;;;14.41;51.98;97042.86;105550;1257;62071;-46
2023/12/26 03:00:46;;;;;;;0.30;0.30;;;;;;;14.41;51.96;97048.25;105709;1258;75446;-46
2023/12/26 03:03:14;;;;;;;0.30;0.30;;;;;;;14.41;51.96;97049.41;105141;1257;66233;-46
2023/12/26 03:05:42;;;;;;;0.40;0.40;;;;;;;14.41;52.08;97052.32;105162;1258;72596;-46
2023/12/26 03:08:10;;;;;;;0.70;0.40;;;;;;;14.42;51.98;97054.03;105161;1260;62085;-46
2023/12/26 03:10:37;;;;;;;0.80;0.50;;;;;;;14.42;51.94;97058.50;105131;1257;62067;-46
2023/12/26 03:13:04;;;;;;;1.20;0.40;;;;;;;14.42;52.08;97059.50;105109;1257;75394;-46
2023/12/26 03:15:32;;;;;;;0.40;0.40;;;;;;;14.42;52.01;97059.51;105101;1260;65877;-46
2023/12/26 03:17:59;;;;;;;0.40;0.40;;;;;;;14.42;52.02;97057.73;105079;1257;72453;-46
2023/12/26 03:20:27;;;;;;;0.50;0.40;;;;;;;14.43;51.91;97060.84;105115;1258;62050;-46
2023/12/26 03:22:54;;;;;;;0.40;0.40;;;;;;;14.42;52.04;97061.44;105123;1263;62032;-46
2023/12/26 03:25:22;;;;;;;0.60;0.50;;;;;;;14.42;51.94;97064.81;105152;1260;75150;-46
2023/12/26 03:27:49;;;;;;;0.70;0.50;;;;;;;14.42;52.01;97064.52;105467;1261;65449;-46
2023/12/26 03:30:17;;;;;;;0.50;0.50;;;;;;;14.42;51.96;97070.06;105587;1258;72670;-46
2023/12/26 03:32:44;;;;;;;0.60;0.50;;;;;;;14.43;51.94;97068.54;105591;1260;62150;-46
2023/12/26 03:35:12;;;;;;;0.40;0.40;;;;;;;14.43;51.85;97074.84;105221;1258;62077;-46
2023/12/26 03:37:39;;;;;;;0.70;0.50;;;;;;;14.43;52.05;97074.61;105526;1260;76267;-46
2023/12/26 03:40:08;;;;;;;0.40;0.40;;;;;;;14.43;52.01;97075.16;105509;1261;65757;-46
2023/12/26 03:42:35;;;;;;;0.40;0.30;;;;;;;14.43;52.04;97075.48;105129;1257;72670;-46
2023/12/26 03:45:03;;;;;;;0.50;0.50;;;;;;;14.43;52.03;97080.57;105160;1261;62004;-46
2023/12/26 03:47:33;;;;;;;0.30;0.30;;;;;;;14.43;52.01;97084.95;105305;1261;61960;-46
2023/12/26 03:50:03;;;;;;;0.40;0.40;;;;;;;14.43;51.99;97077.85;105398;1257;75150;-46
2023/12/26 03:52:31;;;;;;;0.30;0.30;;;;;;;14.43;51.99;97082.95;105357;1260;66245;-45
2023/12/26 03:54:58;;;;;;;0.40;0.40;;;;;;;14.43;52.00;97080.80;105146;1261;72687;-46
2023/12/26 03:57:26;;;;;;;0.60;0.30;;;;;;;14.43;52.05;97080.95;105334;1261;62060;-46
2023/12/26 03:59:53;;;;;;;0.40;0.40;;;;;;;14.44;52.06;97087.34;105432;1261;62165;-46
2023/12/26 04:02:20;;;;;;;1.10;0.40;;;;;;;14.44;52.02;97086.44;105553;1260;75359;-46
2023/12/26 04:04:49;;;;;;;0.40;0.40;;;;;;;14.44;51.91;97085.73;105469;1261;64779;-46
2023/12/26 04:07:16;;;;;;;0.50;0.50;;;;;;;14.44;52.05;97088.42;105379;1258;72733;-46
2023/12/26 04:09:44;;;;;;;0.60;0.50;;;;;;;14.44;51.98;97084.04;105552;1257;62185;-46
2023/12/26 04:12:12;;;;;;;0.40;0.30;;;;;;;14.45;52.02;97084.77;105622;1256;62163;-46
2023/12/26 04:14:39;;;;;;;1.70;0.30;;;;;;;14.45;51.96;97084.52;105300;1258;75366;-46
2023/12/26 04:17:07;;;;;;;0.30;0.30;;;;;;;14.45;51.98;97081.52;105202;1260;66101;-45
2023/12/26 04:19:34;;;;;;;0.70;0.50;;;;;;;14.45;52.05;97083.37;105219;1257;72621;-45
2023/12/26 04:22:01;;;;;;;0.30;0.20;;;;;;;14.45;51.91;97088.01;105502;1262;62054;-45
2023/12/26 04:24:29;;;;;;;0.50;0.50;;;;;;;14.45;51.96;97085.78;105551;1262;62150;-46
2023/12/26 04:26:56;;;;;;;0.50;0.50;;;;;;;14.45;51.88;97084.48;105048;1263;75463;-45
2023/12/26 04:29:25;;;;;;;1.00;0.60;;;;;;;14.45;52.01;97080.39;105110;1258;67273;-46
2023/12/26 04:31:52;;;;;;;0.60;0.40;;;;;;;14.45;52.02;97073.77;105100;1261;72576;-46
2023/12/26 04:34:20;;;;;;;0.30;0.30;;;;;;;14.46;51.95;97075.56;105032;1263;62173;-46
2023/12/26 04:36:47;;;;;;;0.40;0.40;;;;;;;14.46;51.92;97080.48;105127;1258;62056;-46
2023/12/26 04:39:15;;;;;;;0.40;0.30;;;;;;;14.46;52.04;97082.02;105386;1258;75467;-46
2023/12/26 04:41:42;;;;;;;0.70;0.50;;;;;;;14.46;51.99;97080.40;105476;1257;66125;-46
2023/12/26 04:44:09;;;;;;;0.50;0.50;;;;;;;14.46;51.90;97085.34;105097;1257;72427;-46
2023/12/26 04:46:37;;;;;;;0.40;0.40;;;;;;;14.46;51.91;97088.56;105404;1261;62106;-46
2023/12/26 04:49:05;;;;;;;0.50;0.50;;;;;;;14.46;52.06;97090.95;105276;1262;62050;-46
2023/12/26 04:51:32;;;;;;;0.40;0.40;;;;;;;14.46;51.98;97095.96;105295;1258;74918;-45
2023/12/26 04:54:01;;;;;;;0.40;0.40;;;;;;;14.46;52.02;97095.89;105532;1257;66251;-46
2023/12/26 04:56:28;;;;;;;0.40;0.40;;;;;;;14.47;51.97;97097.45;105584;1257;70831;-46
2023/12/26 04:58:56;;;;;;;0.40;0.40;;;;;;;14.47;51.91;97095.61;105108;1261;62035;-46
2023/12/26 05:01:23;;;;;;;0.50;0.30;;;;;;;14.47;51.90;97100.83;105051;1258;62048;-46
2023/12/26 05:03:51;;;;;;;0.40;0.40;;;;;;;14.47;52.00;97104.23;105539;1260;75370;-45
2023/12/26 05:06:18;;;;;;;0.60;0.40;;;;;;;14.47;51.94;97103.46;105343;1263;65939;-45
2023/12/26 05:08:46;;;;;;;0.30;0.30;;;;;;;14.47;51.87;97107.95;105244;1263;71340;-45
2023/12/26 05:11:22;;;;;;;0.80;0.40;;;;;;;14.47;52.00;97108.25;105570;1260;61971;-45
2023/12/26 05:13:50;;;;;;;;;;;;;;;14.48;52.01;97115.04;105562;1260;61926;-45
2023/12/26 05:16:19;;;;;;;0.30;0.30;;;;;;;14.47;51.94;97106.45;105635;1260;75429;-45
2023/12/26 05:18:46;;;;;;;1.00;0.40;;;;;;;14.47;51.86;97099.84;105199;1263;66163;-45
2023/12/26 05:21:21;;;;;;;0.50;0.40;;;;;;;14.47;52.00;97099.75;105488;1257;72573;-45
2023/12/26 05:23:49;;;;;;;0.30;0.30;;;;;;;14.47;51.97;97106.54;105335;1258;62042;-45
2023/12/26 05:26:16;;;;;;;0.40;0.30;;;;;;;14.47;51.96;97108.70;105136;1256;62139;-47
2023/12/26 05:28:46;;;;;;;0.40;0.40;;;;;;;14.47;51.96;97109.40;105479;1260;75429;-46
2023/12/26 05:31:13;;;;;;;0.40;0.30;;;;;;;14.48;52.06;97110.50;105237;1258;66106;-45
2023/12/26 05:33:41;;;;;;;0.80;0.50;;;;;;;14.48;52.08;97099.73;105194;1263;72628;-46
2023/12/26 05:36:09;;;;;;;0.30;0.30;;;;;;;14.48;51.95;97100.96;105222;1263;61946;-45
2023/12/26 05:38:37;;;;;;;1.00;0.50;;;;;;;14.48;51.90;97103.98;105562;1258;62168;-45
2023/12/26 05:41:04;;;;;;;0.40;0.40;;;;;;;14.48;51.95;97098.95;105345;1257;74485;-46
2023/12/26 05:43:32;;;;;;;0.30;0.20;;;;;;;14.49;52.01;97100.76;105264;1260;65906;-46
2023/12/26 05:46:01;;;;;;;0.80;0.40;;;;;;;14.49;51.97;97105.30;105367;1258;72632;-46
2023/12/26 05:48:29;;;;;;;0.40;0.40;;;;;;;14.49;52.06;97106.84;105202;1262;62130;-46
2023/12/26 05:50:57;;;;;;;0.70;0.40;;;;;;;14.49;52.04;97103.77;105178;1262;62165;-46
2023/12/26 05:53:29;;;;;;;0.60;0.40;;;;;;;14.49;52.02;97108.92;105200;1261;75363;-46
2023/12/26 05:55:57;;;;;;;0.60;0.50;;;;;;;14.49;51.96;97103.38;105398;1257;65122;-45
2023/12/26 05:58:25;;;;;;;0.30;0.30;;;;;;;14.50;51.86;97106.32;105083;1258;71601;-46
2023/12/26 06:00:52;;;;;;;0.50;0.50;;;;;;;14.50;51.99;97104.73;105478;1257;62245;-45
2023/12/26 06:03:20;;;;;;;2.00;0.50;;;;;;;14.50;52.03;97107.34;105469;1260;62180;-45
2023/12/26 06:05:48;;;;;;;0.40;0.40;;;;;;;14.50;51.92;97107.88;105569;1257;75430;-45
2023/12/26 06:08:17;;;;;;;0.30;0.30;;;;;;;14.50;51.88;97105.81;105473;1260;65882;-45
2023/12/26 06:10:44;;;;;;;0.40;0.40;;;;;;;14.51;52.00;97111.13;105716;1257;73189;-45
2023/12/26 06:13:12;;;;;;;0.40;0.40;;;;;;;14.51;51.97;97109.35;105216;1257;62039;-46
2023/12/26 06:15:39;;;;;;;0.40;0.40;;;;;;;14.51;51.83;97111.60;105315;1257;62059;-45
2023/12/26 06:18:07;;;;;;;0.40;0.40;;;;;;;14.52;52.00;97116.31;105599;1261;75375;-45
2023/12/26 06:20:35;;;;;;;0.40;0.40;;;;;;;14.51;51.92;97112.45;105634;1260;66082;-46
2023/12/26 06:23:03;;;;;;;0.50;0.50;;;;;;;14.51;51.91;97108.98;105556;1258;71609;-45
2023/12/26 06:25:30;;;;;;;0.60;0.50;;;;;;;14.52;51.85;97104.45;106007;1257;62150;-47
2023/12/26 06:27:58;;;;;;;0.70;0.50;;;;;;;14.52;52.00;97113.77;105395;1259;62220;-45
2023/12/26 06:30:26;;;;;;;0.60;0.50;;;;;;;14.52;51.86;97125.63;106068;1258;75399;-46
2023/12/26 06:32:55;;;;;;;0.60;0.40;;;;;;;14.52;51.87;97124.10;105228;1260;66241;-46
2023/12/26 06:35:24;;;;;;;0.50;0.50;;;;;;;14.53;51.95;97130.44;105386;1262;72724;-46
2023/12/26 06:37:51;;;;;;;0.40;0.30;;;;;;;14.53;51.95;97130.44;105290;1257;61939;-46
2023/12/26 06:40:18;;;;;;;0.50;0.50;;;;;;;14.53;52.00;97132.90;105549;1258;62060;-46
2023/12/26 06:42:46;;;;;;;0.40;0.40;;;;;;;14.53;52.01;97134.06;105518;1262;74485;-39
2023/12/26 06:45:13;;;;;;;1.70;0.70;;;;;;;14.53;52.11;97128.30;105186;1258;65671;-46
2023/12/26 06:47:42;;;;;;;0.70;0.50;;;;;;;14.54;52.07;97128.70;105108;1259;72695;-49
2023/12/26 06:50:10;;;;;;;3.30;0.70;;;;;;;14.55;52.14;97129.75;105566;1260;62054;-48
2023/12/26 06:52:38;;;;;;;1.10;0.80;;;;;;;14.58;52.27;97134.30;105294;1256;62238;-48
2023/12/26 06:55:06;;;;;;;1.10;0.70;;;;;;;14.61;52.58;97137.50;105206;1260;75529;-48
2023/12/26 06:57:41;;;;;;;;;;;;;;;14.69;52.62;97142.60;103791;1280;600556;-49
2023/12/26 07:00:09;;;;;;;3.30;0.90;;;;;;;14.70;52.88;97138.45;105011;1269;59478;-48
2023/12/26 07:02:37;;;;;;;2.00;0.60;;;;;;;14.73;53.07;97134.42;104850;1269;59340;-49
2023/12/26 07:05:05;;;;;;;1.50;0.80;;;;;;;14.76;52.97;97127.80;104779;1271;72197;-49
2023/12/26 07:07:33;;;;;;;2.30;1.00;;;;;;;14.79;52.87;97127.59;104825;1269;65118;-50
2023/12/26 07:10:00;;;;;;;3.00;1.00;;;;;;;14.81;52.78;97129.91;104796;1269;72580;-48
2023/12/26 07:12:28;;;;;;;3.50;1.00;;;;;;;14.84;52.83;97129.84;104689;1267;157103;-48
2023/12/26 07:14:55;;;;;;;4.10;1.20;;;;;;;14.86;52.84;97121.95;105161;1267;59359;-50
2023/12/26 07:17:23;;;;;;;4.60;1.10;;;;;;;14.88;52.98;97126.49;105139;1263;72142;-51
2023/12/26 07:19:50;;;;;;;4.00;1.00;;;;;;;14.89;53.07;97124.23;104910;1267;65241;-51
2023/12/26 07:22:18;;;;;;;4.40;1.10;;;;;;;14.91;53.12;97122.73;104672;1263;72713;-49
2023/12/26 07:24:45;;;;;;;6.60;1.20;;;;;;;14.92;53.13;97123.61;104718;1266;59627;-49
2023/12/26 07:27:13;;;;;;;4.60;1.30;;;;;;;14.92;53.06;97115.07;104791;1267;59658;-49
2023/12/26 07:29:40;;;;;;;6.90;1.60;;;;;;;14.93;53.13;97104.15;104886;1263;72964;-49
2023/12/26 07:32:07;;;;;;;5.80;1.40;;;;;;;14.93;53.01;97112.01;105189;1263;64061;-50
2023/12/26 07:34:35;;;;;;;5.70;1.20;;;;;;;14.94;53.03;97117.67;105142;1267;73199;-54
2023/12/26 07:37:03;;;;;;;9.80;1.40;;;;;;;14.96;53.38;97116.11;104937;1267;59672;-48
2023/12/26 07:39:30;;;;;;;6.20;1.30;;;;;;;14.98;53.73;97117.02;104853;1267;59723;-51
2023/12/26 07:42:00;;;;;;;7.80;1.80;;;;;;;15.00;53.68;97115.08;105072;1264;73001;-56
2023/12/26 07:44:30;;;;;;;9.80;1.50;;;;;;;15.02;53.71;97118.37;105247;1256;64256;-57
2023/12/26 07:46:57;;;;;;;4.10;1.30;;;;;;;15.02;53.62;97121.92;105430;1259;72567;-52
2023/12/26 07:49:24;;;;;;;6.30;1.20;;;;;;;15.02;53.76;97115.23;106911;1259;59734;-54
2023/12/26 07:51:52;;;;;;;5.40;1.30;;;;;;;15.03;53.77;97119.17;105367;1256;59699;-57
2023/12/26 07:54:20;;;;;;;7.60;1.50;;;;;;;15.03;53.89;97119.34;105336;1255;74718;-57
2023/12/26 07:56:47;;;;;;;10.60;1.40;;;;;;;15.04;53.74;97119.14;105498;1259;64259;-56
2023/12/26 07:59:15;;;;;;;4.00;1.20;;;;;;;15.05;53.87;97110.15;105561;1259;72640;-57
2023/12/26 08:01:43;;;;;;;4.80;1.30;;;;;;;15.07;53.97;97109.89;105523;1259;59690;-55
2023/12/26 08:04:10;;;;;;;5.00;1.30;;;;;;;15.07;53.88;97103.73;105422;1260;59558;-55
2023/12/26 08:06:38;;;;;;;9.00;1.30;;;;;;;15.08;54.00;97101.23;105456;1254;74498;-56
2023/12/26 08:09:05;;;;;;;10.10;1.50;;;;;;;15.10;54.07;97098.88;105428;1257;64975;-53
2023/12/26 08:11:33;;;;;;;5.40;1.30;;;;;;;15.11;54.01;97097.52;105435;1254;73190;-55
2023/12/26 08:14:00;;;;;;;10.00;1.40;;;;;;;15.13;54.06;97098.02;105287;1260;59675;-54
2023/12/26 08:16:27;;;;;;;6.10;1.20;;;;;;;15.13;53.97;97101.73;105319;1257;59756;-48
2023/12/26 08:18:57;;;;;;;3.40;1.40;;;;;;;15.14;54.19;97105.33;105395;1257;72027;-47
2023/12/26 08:21:25;;;;;;;5.10;1.40;;;;;;;15.17;54.34;97103.47;105480;1259;65503;-50
2023/12/26 08:23:52;;;;;;;3.20;1.50;;;;;;;15.18;54.54;97097.63;105348;1259;71523;-45
2023/12/26 08:26:21;;;;;;;7.30;1.50;;;;;;;15.19;54.77;97094.67;105636;1259;59904;-45
2023/12/26 08:28:49;;;;;;;5.40;1.20;;;;;;;15.21;55.09;97098.13;105366;1256;61087;-49
2023/12/26 08:31:17;;;;;;;6.00;1.70;;;;;;;15.24;55.44;97104.01;105413;1257;73055;-42
2023/12/26 08:33:44;;;;;;;5.60;2.10;;;;;;;15.29;55.55;97101.21;105535;1256;65119;-45
2023/12/26 08:36:12;;;;;;;3.80;1.70;;;;;;;15.35;55.86;97099.08;105659;1259;72616;-42
2023/12/26 08:38:41;;;;;;;7.70;1.40;;;;;;;15.40;56.08;97089.98;105401;1259;59706;-40
2023/12/26 08:41:11;;;;;;;4.30;1.30;;;;;;;15.46;56.23;97085.52;105538;1259;60002;-40
2023/12/26 08:43:39;;;;;;;8.40;1.60;;;;;;;15.52;56.14;97078.06;105456;1254;72742;-44
2023/12/26 08:46:06;;;;;;;8.90;1.70;;;;;;;15.57;56.08;97076.52;105328;1259;66125;-47
2023/12/26 08:48:33;;;;;;;48.30;3.80;;;;;;;15.60;55.98;97071.53;105132;1256;72442;-42
2023/12/26 08:51:01;;;;;;;39.70;3.10;;;;;;;15.64;55.75;97059.05;105409;1259;59817;-46
2023/12/26 08:53:29;;;;;;;41.10;2.70;;;;;;;15.68;55.74;97061.70;105398;1256;59964;-52
2023/12/26 08:55:56;;;;;;;43.70;3.60;;;;;;;15.72;55.63;97054.89;105452;1255;73011;-41
2023/12/26 08:58:27;;;;;;;28.30;2.50;;;;;;;15.77;55.52;97049.98;105497;1256;64100;-49
2023/12/26 09:00:54;;;;;;;27.50;2.70;;;;;;;15.79;55.61;97049.38;105565;1254;73644;-45
2023/12/26 09:03:21;;;;;;;30.60;3.50;;;;;;;15.83;55.71;97051.08;105458;1259;59733;-50
2023/12/26 09:05:49;;;;;;;30.20;3.20;;;;;;;15.87;56.03;97045.25;105410;1256;59546;-43
2023/12/26 09:08:16;;;;;;;28.30;3.40;;;;;;;15.92;56.39;97041.19;105491;1256;73023;-53
2023/12/26 09:10:44;;;;;;;33.50;2.60;;;;;;;15.97;56.53;97050.27;105310;1258;64229;-52
2023/12/26 09:13:12;;;;;;;13.80;2.20;;;;;;;16.01;56.83;97035.09;104988;1259;72605;-64
2023/12/26 09:15:39;;;;;;;35.40;2.60;;;;;;;16.04;56.79;97029.02;105093;1256;59788;-48
2023/12/26 09:18:06;;;;;;;22.00;2.80;;;;;;;16.07;56.76;97034.10;109228;1255;58915;-48
2023/12/26 09:20:34;;;;;;;27.70;2.80;;;;;;;16.09;56.71;97039.95;107859;1256;73861;-51
2023/12/26 09:23:02;;;;;;;23.70;3.10;;;;;;;16.11;56.71;97043.38;105501;1258;66509;-46
2023/12/26 09:25:29;;;;;;;32.70;2.80;;;;;;;16.12;56.50;97034.07;106436;1255;72580;-47
2023/12/26 09:27:56;;;;;;;19.80;2.30;;;;;;;16.13;56.45;97032.77;105194;1259;59967;-45
2023/12/26 09:30:24;;;;;;;15.50;2.40;;;;;;;16.12;56.28;97027.88;105563;1256;60210;-45
2023/12/26 09:32:51;;;;;;;17.90;2.40;;;;;;;16.09;56.22;97026.83;105406;1258;74058;-48
2023/12/26 09:35:19;;;;;;;24.60;2.80;;;;;;;16.08;56.13;97029.52;106668;1254;67325;-48
2023/12/26 09:37:46;;;;;;;19.00;2.30;;;;;;;16.08;56.24;97024.33;105438;1255;71523;-47
2023/12/26 09:40:14;;;;;;;17.40;2.00;;;;;;;16.07;55.93;97021.35;105507;1259;59934;-45
2023/12/26 09:42:41;;;;;;;20.20;2.20;;;;;;;16.06;55.83;97018.10;105429;1256;60176;-48
2023/12/26 09:45:10;;;;;;;10.00;2.40;;;;;;;16.06;55.79;97010.77;105239;1257;72579;-48
2023/12/26 09:47:42;;;;;;;13.30;2.20;;;;;;;16.06;55.74;97011.39;105410;1259;65345;-49
2023/12/26 09:50:10;;;;;;;13.60;2.30;;;;;;;16.05;55.83;97009.13;105260;1259;72639;-50
2023/12/26 09:52:40;;;;;;;10.00;2.10;;;;;;;16.03;55.77;97007.23;105334;1256;61359;-47
2023/12/26 09:55:08;;;;;;;13.20;2.20;;;;;;;16.02;55.69;97003.56;105154;1256;59720;-49
2023/12/26 09:57:35;;;;;;;12.80;2.40;;;;;;;15.99;55.61;96993.00;105267;1257;73402;-48
2023/12/26 10:00:03;;;;;;;10.80;2.10;;;;;;;15.98;55.53;96989.95;105329;1259;66745;-47
2023/12/26 10:02:38;;;;;;;13.70;2.30;;;;;;;15.96;55.55;96984.84;107884;1255;73585;-48
2023/12/26 10:05:06;;;;;;;10.10;1.90;;;;;;;15.95;55.39;96986.50;106523;1257;60324;-48
2023/12/26 10:07:33;;;;;;;9.20;1.60;;;;;;;15.94;55.29;96985.93;105176;1261;59663;-50
2023/12/26 10:10:01;;;;;;;10.70;2.00;;;;;;;15.93;55.24;96982.73;105285;1257;72668;-48
2023/12/26 10:12:31;;;;;;;6.30;1.50;;;;;;;15.92;55.18;96978.40;105358;1260;65169;-48
2023/12/26 10:14:59;;;;;;;12.50;2.10;;;;;;;15.92;54.96;96978.30;105448;1261;72354;-45
2023/12/26 10:17:27;;;;;;;11.50;1.80;;;;;;;15.91;55.01;96976.52;106069;1257;59650;-54
2023/12/26 10:19:58;;;;;;;10.40;1.90;;;;;;;15.91;55.09;96977.14;104943;1260;59626;-49
2023/12/26 10:22:26;;;;;;;8.20;2.10;;;;;;;15.93;55.09;96976.80;109215;1256;74063;-61
2023/12/26 10:24:55;;;;;;;12.40;1.80;;;;;;;15.95;55.18;96971.30;109210;1256;65451;-51
2023/12/26 10:27:22;;;;;;;9.70;2.50;;;;;;;15.97;55.25;96964.57;107932;1259;73694;-51
2023/12/26 10:29:53;;;;;;;8.70;2.00;;;;;;;15.99;55.29;96974.09;109113;1256;61207;-55
2023/12/26 10:32:25;;;;;;;8.70;1.80;;;;;;;16.02;55.26;96968.99;108086;1258;59324;-57
2023/12/26 10:34:53;;;;;;;4.40;1.40;;;;;;;16.03;55.26;96964.27;105503;1259;73819;-47
2023/12/26 10:37:21;;;;;;;6.80;1.80;;;;;;;16.05;55.14;96959.27;105625;1259;65030;-53
2023/12/26 10:39:49;;;;;;;8.80;1.80;;;;;;;16.06;55.22;96957.90;105271;1261;72653;-54
2023/12/26 10:42:16;;;;;;;8.30;1.90;;;;;;;16.07;55.20;96961.70;105385;1260;59619;-46
2023/12/26 10:44:56;;;;;;;8.10;1.60;;;;;;;16.07;55.20;96960.48;105473;1260;59580;-48
2023/12/26 10:47:25;;;;;;;13.00;1.80;;;;;;;16.09;55.27;96958.36;105331;1256;71949;-47
2023/12/26 10:49:55;;;;;;;13.50;2.00;;;;;;;16.09;55.42;96949.86;105501;1260;65865;-48
2023/12/26 10:52:24;;;;;;;14.00;2.20;;;;;;;16.10;55.46;96946.95;105293;1261;72643;-55
2023/12/26 10:54:54;;;;;;;8.10;2.20;;;;;;;16.09;55.42;96944.48;105442;1256;60067;-46
2023/12/26 10:57:23;;;;;;;7.60;1.40;;;;;;;16.10;55.36;96948.04;105627;1256;59765;-52
2023/12/26 13:51:33;;;;;;;6.00;1.50;;;;;;;15.79;55.75;96944.99;105443;1259;68059;-46
2023/12/26 13:54:01;;;;;;;3.60;1.70;;;;;;;15.80;55.69;96944.16;105432;1258;73271;-40
2023/12/26 13:57:07;;;;;;;7.30;1.80;;;;;;;15.80;55.53;96944.55;105372;1256;61548;-39
2023/12/26 13:59:34;;;;;;;5.80;1.70;;;;;;;15.80;55.43;96942.86;107697;1260;60126;-39
2023/12/26 14:02:02;;;;;;;6.10;1.70;;;;;;;15.78;55.36;96947.42;105210;1256;74821;-39
2023/12/26 14:04:29;;;;;;;7.90;1.70;;;;;;;15.77;55.35;96950.80;105306;1262;65356;-39
2023/12/26 14:06:57;;;;;;;4.50;1.60;;;;;;;15.75;55.20;96952.06;105277;1256;73636;-39
2023/12/26 14:09:25;;;;;;;6.80;1.60;;;;;;;15.73;55.26;96951.92;105257;1261;60439;-39
2023/12/26 14:11:52;;;;;;;4.60;1.20;;;;;;;15.71;55.23;96951.64;105648;1262;60356;-39
2023/12/26 14:14:20;;;;;;;3.50;1.30;;;;;;;15.69;55.18;96956.70;105460;1257;73594;-39
2023/12/26 14:17:25;;;;;;;4.20;1.40;;;;;;;15.67;55.11;96948.39;105629;1256;65361;-39
2023/12/26 14:19:52;;;;;;;4.90;1.50;;;;;;;15.65;55.12;96956.52;105331;1256;73052;-40